Milwaukee, Wisconsin
Traffic Map
Current Weather Conditions
Milwaukee, Wisconsin
Clear
Clear
26°
Feels Like: 13°
Wind Chill: 13° Ceiling: Unl
Heat Index: 26° Visibility: 10mi
Dew Point: 16° Wind: 17mph
Humidity: 66% Direction: 250° (WSW)
Pressure: 29.91in Gusts: 24mph
Raw Report DataKMKE 070752Z 25015G21KT 10SM CLR M03/M09 A2991 RMK AO2 SLP138 T10331089
Traffic Incident Summary
Active as of:
Severity:
Category:
InformationThere was an issue retrieving the traffic information for this location. Please try a different location or try again shortly.
Advertisements
Track Severe Weather on mobile